Tiempo atmosférico en la estación meteorológica de Sa Pobla, Illes Balears (40 m.)



Fecha
DESCASC
Temp. máxima en grados centígrados (hora)
DESCASC
Temp. mínima en grados centígrados (hora)
DESCASC
Temp. media en grados centígrados
DESCASC
Racha de viento máxima en m/sg (hora)
DESCASC
Velocidad máxima media en intervalos de 10 minutos(hora)
DESCASC
Precipitaciones diarias en mm
DESCASC
Precipitaciones de 00:00 a 06:00 en mm
DESCASC
Precipitaciones de 06:00 a 12:00 en mm
DESCASC
Precipitaciones de 12:00 a 18:00 en mm
DESCASC
Precipitaciones de 18:00 a 24:00 en mm
DESCASC
16-02-2020 16.9 (15:20) 11.5 (05:50) 14.2 9.17 (13:20) 4.72 (14:50) 0 0 0 0 0
15-02-2020 19.7 (14:20) 9.8 (08:40) 14.8 6.11 (12:10) 3.33 (10:20) 0 0 0 0 0
14-02-2020 19.3 (14:20) 10.8 (20:40) 15 6.39 (04:30) 3.61 (15:20) 0 0 0 0 0
13-02-2020 19.8 (15:30) 10.8 (00:00) 15.3 7.5 (21:50) 3.89 (21:50) 0 0 0 0 0
12-02-2020 16.6 (11:50) 8.8 (00:00) 12.7 6.39 (13:30) 4.44 (13:40) 0 0 0 0 0
11-02-2020 22.5 (14:30) 8.5 (00:00) 15.5 7.22 (15:40) 3.89 (15:30) 0 0 0 0 0
10-02-2020 19.7 (14:40) 9.8 (00:00) 14.8 10.83 (12:10) 4.72 (12:00) 0.2 0 0.2 0 0
09-02-2020 18.9 (14:30) 4.1 (00:00) 11.5 8.89 (15:50) 4.44 (17:30) 0 0 0 0 0
08-02-2020 17 (14:30) 3.7 (00:00) 10.4 5 (15:20) 3.33 (15:50) 0 0 0 0 0
07-02-2020 15.5 (16:10) 3.7 (00:00) 9.6 5 (16:20) 3.33 (16:20) 0 0 0 0 0
06-02-2020 16.6 (14:40) 2.4 (00:00) 9.5 6.39 (15:40) 4.17 (16:40) 0 0 0 0 0
05-02-2020 16.1 (16:30) 4.3 (00:00) 10.2 10.28 (13:00) 6.39 (12:20) 0 0 0 0 0
04-02-2020 23 (11:30) 12.2 (00:00) 17.6 17.22 (11:40) 10 (11:40) 0.2 0 0.2 0 0
03-02-2020 24.9 (14:30) 8.8 (08:10) 16.8 7.22 (23:50) 4.17 (23:59) 0 0 0 0 0
02-02-2020 21.7 (13:50) 9.7 (00:00) 15.7 8.61 (12:30) 4.44 (12:50) 0 0 0 0 0
01-02-2020 20.8 (16:10) 5.8 (00:00) 13.3 7.22 (12:50) 3.89 (12:00) 0 0 0 0 0
31-01-2020 19.8 (15:10) 8.4 (00:00) 14.1 5 (17:20) 3.33 (16:50) 0 0 0 0 0
30-01-2020 19.8 (15:30) 10.9 (00:00) 15.3 7.22 (20:30) 3.89 (20:20) 0 0 0 0 0
29-01-2020 20 (13:40) 8.8 (00:00) 14.4 5.28 (00:20) 3.06 (00:10) 0 0 0 0 0
28-01-2020 20.6 (14:30) 11.3 (00:00) 16 10.83 (11:30) 5.28 (11:30) 0 0 0 0 0
27-01-2020 16.2 (13:20) 4.1 (00:00) 10.2 10 (19:40) 5.28 (17:00) 0 0 0 0 0
26-01-2020 16.5 (14:20) 5.4 (00:00) 11 5.28 (18:10) 2.78 (18:10) 0 0 0 0 0
25-01-2020 17.1 (15:00) 6.4 (00:00) 11.8 3.89 (15:40) 2.5 (15:40) 0 0 0 0 0
24-01-2020 16.7 (14:20) 4.6 (00:00) 10.7 4.17 (14:50) 2.78 (14:40) 0 0 0 0 0
23-01-2020 17.6 (15:50) 7 (00:00) 12.3 5 (14:50) 2.78 (16:30) 0 0 0 0 0
22-01-2020 17.1 (14:40) 7.3 (00:00) 12.2 8.33 (15:30) 5.83 (16:10) 0 0 0 0 0

Gráficas

Temp. máximas Temp. mínimas Temp. medias Precipitaciones Rachas de viento máximas Velocidades máximas media en intervalos de 10 minutos

Datos horarios

Fecha y hora oficial Temperatura (ºC) Velocidad del viento (km/h) Dirección del viento Racha (km/h) Dirección de racha Precipitación (mm) Presión (hPa) Tendencia (hPa) Humedad (%)
2020-02-20 23:00:00 5.7 4 Sudoeste 8 Sudoeste 0 1023.4 0.8 92
2020-02-20 22:00:00 7.4 5 Sudoeste 8 Sudoeste 0 1023 0.6 91
2020-02-20 21:00:00 7.4 0 Calma 9 Noroeste 0 1022.5 0.8 89
2020-02-20 20:00:00 10 6 Noroeste 9 Noroeste 0 1022.6 1.2 83
2020-02-20 19:00:00 11.3 4 Norte 14 Nordeste 0 1022.4 1.2 79
2020-02-20 18:00:00 13.7 8 Nordeste 21 Nordeste 0 1021.7 0.7 68
2020-02-20 17:00:00 14.9 12 Nordeste 23 Nordeste 0 1021.4 0 63
2020-02-20 16:00:00 16.1 12 Nordeste 27 Nordeste 0 1021.2 -1.1 57
2020-02-20 15:00:00 16.9 13 Nordeste 28 Nordeste 0 1021 -1.9 53
2020-02-20 14:00:00 17.2 5 Sudoeste 13 Sudoeste 0 1021.4 -1.7 41
2020-02-20 13:00:00 16.4 5 Sur 15 Sudoeste 0 1022.3 -1.1 46
2020-02-20 12:00:00 15 4 Sur 15 Sudeste 0 1022.9 -0.3 51
2020-02-20 11:00:00 13.6 6 Sur 12 Sur 0 1023.1 0.2 56
2020-02-20 10:00:00 10.4 3 Sur 9 Sur 0 1023.4 0.6 73
2020-02-20 09:00:00 5.4 5 Sur 11 Sur 0 1023.2 0.3 85
2020-02-20 08:00:00 2.2 9 Sudoeste 13 Sur 0 1022.9 0.1 91
2020-02-20 07:00:00 2.2 8 Sudoeste 11 Sudoeste 0 1022.8 -0.5 91
2020-02-20 06:00:00 2.5 6 Sudoeste 12 Sudoeste 0 1022.9 -1.2 91
2020-02-20 05:00:00 2.5 6 Sudoeste 10 Sudoeste 0 1022.8 -1.7 91
2020-02-20 04:00:00 3.1 6 Sudoeste 10 Sudoeste 0 1023.3 -1.5 92
2020-02-20 03:00:00 3.6 6 Sudoeste 10 Sudoeste 0 1024.1 -1 91
2020-02-20 02:00:00 4 6 Sudoeste 11 Sudoeste 0 1024.5 -1 92
2020-02-20 01:00:00 3.8 3 Sudoeste 9 Sudoeste 0 1024.8 -0.8 92
2020-02-20 00:00:00 4.3 3 Sudoeste 6 Sur 0 1025.1 -0.5 91
2020-02-19 23:00:00 5.8 3 Oeste 9 Noroeste 0 1025.5 0 87
2020-02-19 22:00:00 6.8 4 Sur 8 Sudoeste 0 1025.6 0.3 86
2020-02-19 21:00:00 8.5 6 Sudoeste 9 Sur 0 1025.6 0.4 82
2020-02-19 20:00:00 9.7 5 Oeste 8 Oeste 0 1025.5 0 78
2020-02-19 19:00:00 11.9 4 Noroeste 16 Nordeste 0 1025.3 -0.7 69
2020-02-19 18:00:00 14.7 5 Nordeste 18 Nordeste 0 1025.2 -1.3 59
2020-02-19 17:00:00 15.5 5 Este 19 Este 0 1025.5 -1.7 53
2020-02-19 16:00:00 15.5 10 Este 18 Este 0 1026 -1.8 52
2020-02-19 15:00:00 15.8 13 Este 22 Este 0 1026.5 -2 48
2020-02-19 14:00:00 16.3 4 Nordeste 18 Sudeste 0 1027.2 -1.4 45
2020-02-19 13:00:00 15.7 11 Nordeste 23 Nordeste 0 1027.8 -0.4 46
2020-02-19 12:00:00 15 15 Nordeste 28 Norte 0 1028.5 1.3 48
2020-02-19 11:00:00 14.5 6 Nordeste 13 Este 0 1028.6 2 60
2020-02-19 10:00:00 11.7 5 Sudeste 8 Sudeste 0 1028.2 1.4 81
2020-02-19 09:00:00 8.5 5 Sur 10 Sudoeste 0 1027.2 0.4 91
2020-02-19 08:00:00 5.4 6 Sudoeste 12 Sudoeste 0 1026.6 -0.4 95
2020-02-19 07:00:00 4.8 5 Sur 12 Oeste 0 1026.8 0 95
2020-02-19 06:00:00 5.8 7 Sudoeste 11 Sudoeste 0 1026.8 -0.3 95
2020-02-19 05:00:00 5.9 6 Sur 9 Sur 0 1027 -0.3 94
2020-02-19 04:00:00 7.3 6 Sudoeste 9 Sudoeste 0 1026.8 -0.8 93
2020-02-19 03:00:00 7.9 5 Sudeste 9 Sur 0 1027.1 -0.8 91
2020-02-19 02:00:00 9 4 Sur 8 Sudoeste 0 1027.3 -0.5 89
2020-02-19 01:00:00 8.7 5 Sur 9 Sur 0 1027.6 -0.1 89
2020-02-19 00:00:00 8.4 2 Sur 8 Sur 0 1027.9 0.3 90
2020-02-18 23:00:00 8.3 2 Sur 6 Sur 0 1027.8 0.7 89
2020-02-18 22:00:00 9.8 5 Sudoeste 8 Sudoeste 0 1027.7 0.9 84
2020-02-18 21:00:00 10.5 3 Oeste 8 Sudoeste 0 1027.6 0.9 78
2020-02-18 20:00:00 11.6 3 Sudoeste 10 Nordeste 0 1027.1 0.4 73
2020-02-18 19:00:00 12 5 Nordeste 11 Norte 0 1026.8 0 69
2020-02-18 18:00:00 13 8 Nordeste 18 Nordeste 0 1026.7 -0.4 63
2020-02-18 17:00:00 13.3 13 Nordeste 19 Norte 0 1026.7 -1 65
2020-02-18 16:00:00 13.4 12 Nordeste 23 Nordeste 0 1026.8 -1.5 70
2020-02-18 15:00:00 13.2 14 Norte 23 Norte 0 1027.1 -1.7 75
2020-02-18 14:00:00 13.2 15 Norte 25 Nordeste 0 1027.7 -1.2 70
2020-02-18 13:00:00 13.5 17 Nordeste 27 Norte 0 1028.3 -0.3 68
2020-02-18 12:00:00 14.2 15 Nordeste 24 Nordeste 0 1028.8 0.6 68
2020-02-18 11:00:00 13.6 12 Nordeste 24 Nordeste 0 1028.9 1.3 70
2020-02-18 10:00:00 13.3 14 Nordeste 22 Nordeste 0 1028.6 1.6 71
2020-02-18 09:00:00 12.8 12 Nordeste 24 Norte 0 1028.2 1.6 71
2020-02-18 08:00:00 12.8 17 Nordeste 29 Norte 0 1027.6 1.3 69
2020-02-18 07:00:00 13 18 Nordeste 33 Nordeste 0 1027 0.8 67
2020-02-18 06:00:00 13 23 Nordeste 35 Nordeste 0 1026.6 0.3 66
2020-02-18 05:00:00 12.9 19 Nordeste 29 Nordeste 0 1026.3 0.1 70
2020-02-18 04:00:00 12.8 16 Nordeste 35 Nordeste 0 1026.2 0.2 73
2020-02-18 03:00:00 13.4 25 Nordeste 35 Nordeste 0 1026.3 0.7 67
2020-02-18 02:00:00 13.3 14 Norte 21 Nordeste 0 1026.2 1 70
2020-02-18 01:00:00 14.3 15 Norte 33 Norte 0 1026 1.5 74
2020-02-18 00:00:00 14.3 22 Norte 37 Nordeste 0 1025.6 1.8 78
2020-02-17 23:00:00 14.5 14 Norte 20 Norte 0 1025.2 2.7 81
2020-02-17 22:00:00 14.4 10 Norte 17 Norte 0 1024.5 3.1 84
2020-02-17 21:00:00 12.3 3 Nordeste 10 Nordeste 0 1023.8 2.8 91
2020-02-17 20:00:00 11.9 4 Este 10 Sudoeste 0 1022.5 1.9 89
2020-02-17 19:00:00 13.5 8 Sur 18 Sur 0 1021.4 1 86
2020-02-17 18:00:00 15.7 8 Sudoeste 21 Sudoeste 0 1021 0.6 77
2020-02-17 17:00:00 16.8 10 Sudoeste 24 Sudoeste 0 1020.6 -0.3 72
2020-02-17 16:00:00 17.4 11 Sudoeste 26 Sudoeste 0 1020.4 -1.1 69
2020-02-17 15:00:00 17.2 14 Sur 31 Sudoeste 0 1020.4 -1.6 70
2020-02-17 14:00:00 16.2 17 Sudoeste 34 Sudoeste 0 1020.9 -1.4 73
2020-02-17 13:00:00 17.2 14 Sudoeste 36 Sudoeste 0 1021.5 -0.8 70
2020-02-17 12:00:00 15.9 16 Sudoeste 32 Sudoeste 0 1022 -0.3 74
2020-02-17 11:00:00 14.7 12 Sudoeste 30 Sur 0 1022.3 0.3 79
2020-02-17 10:00:00 14.2 13 Sudoeste 26 Sudoeste 0 1022.3 0.5 80
2020-02-17 09:00:00 13.4 7 Sur 14 Sur 0 1022.3 0.5 83
2020-02-17 08:00:00 13 9 Sur 27 Sudoeste 0 1022 0.2 82
2020-02-17 07:00:00 13 12 Sudoeste 25 Sudoeste 0 1021.8 0 82
2020-02-17 06:00:00 13 12 Sudoeste 24 Sudoeste 0 1021.8 -0.6 81
2020-02-17 05:00:00 13.1 10 Sur 23 Sur 0 1021.8 -1.1 82
2020-02-17 04:00:00 13.1 10 Sur 23 Sur 0 1021.8 -1.4 82
2020-02-17 03:00:00 13.2 12 Sudoeste 23 Sur 0 1022.4 -1.1 81
2020-02-17 02:00:00 13.3 11 Sudoeste 24 Sur 0 1022.9 -1 81
2020-02-17 01:00:00 13.4 12 Sudoeste 26 Sudoeste 0 1023.2 -1 79
2020-02-17 00:00:00 13.4 12 Sudoeste 24 Sudoeste 0 1023.5 -0.5 79
2020-02-16 23:00:00 13.3 10 Sudoeste 26 Sur 0 1023.9 -0.2 79
2020-02-16 22:00:00 13.4 11 Sudoeste 24 Sudoeste 0 1024.2 0.8 78
2020-02-16 21:00:00 13.4 12 Sudoeste 28 Sudoeste 0 1024 1.1 78
2020-02-16 20:00:00 13.5 12 Sudoeste 24 Sur 0 1024.1 1.3 77
2020-02-16 19:00:00 13.7 11 Sudoeste 22 Sudoeste 0 1023.4 0.3 77
2020-02-16 18:00:00 14.1 11 Sudoeste 28 Sudoeste 0 1022.9 -0.4 74
2020-02-16 17:00:00 15.8 12 Sudoeste 26 Sudoeste 0 1022.8 -0.9 68
2020-02-16 16:00:00 16.2 12 Sudoeste 28 Sudoeste 0 1023.1 -1.4 66
2020-02-16 15:00:00 16.1 15 Sudoeste 32 Sudoeste 0 1023.3 -2 66
2020-02-16 14:00:00 15.9 16 Sudoeste 33 Sur 0 1023.7 -1.7 67
2020-02-16 13:00:00 15.4 15 Sur 28 Sudoeste 0 1024.5 -0.3 67
2020-02-16 12:00:00 14.7 12 Sur 28 Sur 0 1025.3 0.7 73
2020-02-16 11:00:00 14.2 11 Sudoeste 22 Sudoeste 0 1025.4 1.5 75
2020-02-16 10:00:00 13.6 10 Sur 20 Sur 0 1024.8 1.3 78
2020-02-16 09:00:00 13.2 10 Sur 21 Sur 0 1024.6 0.5 80
2020-02-16 08:00:00 13.1 11 Sudoeste 24 Sudoeste 0 1023.9 -0.7 80
2020-02-16 07:00:00 12.3 7 Sudoeste 14 Sudoeste 0 1023.5 -1.3 86
2020-02-16 06:00:00 11.5 3 Sudoeste 8 Sudoeste 0 1024.1 -0.6 85
2020-02-16 05:00:00 11.9 0 Calma 9 Noroeste 0 1024.6 -0.1 87
2020-02-16 04:00:00 11.8 4 Noroeste 22 Sudoeste 0 1024.8 0.3 86
2020-02-16 03:00:00 12.9 10 Sudoeste 22 Sudoeste 0 1024.7 0.1 83
2020-02-16 02:00:00 12.8 9 Sur 21 Sudoeste 0 1024.7 -0.2 84
2020-02-16 01:00:00 12.7 8 Sur 20 Sur 0 1024.5 -0.1 86
2020-02-16 00:00:00 11.9 5 Sudoeste 11 Sudoeste 0 1024.6 0.5 92
2020-02-15 23:00:00 10.4 3 Sudoeste 10 Sur 0 1024.9 1.4 93
2020-02-15 22:00:00 10.7 5 Sur 14 Sur 0 1024.6 1 92
2020-02-15 21:00:00 11.2 7 Sur 14 Sur 0 1024.1 0.6 91
2020-02-15 20:00:00 12.1 7 Sur 12 Sur 0 1023.5 0.8 88
2020-02-15 19:00:00 13.7 7 Sur 13 Sur 0 1023.6 1.3 84
2020-02-15 18:00:00 15 6 Nordeste 15 Nordeste 0 1023.5 1.2 82
2020-02-15 17:00:00 16.1 9 Nordeste 15 Este 0 1022.7 0.2 79
2020-02-15 16:00:00 17.1 9 Nordeste 18 Nordeste 0 1022.3 -0.6 75
2020-02-15 15:00:00 19.1 8 Sudoeste 19 Sudoeste 0 1022.3 -1 62
2020-02-15 14:00:00 19 9 Sudoeste 19 Sudoeste 0 1022.5 -0.8 62
2020-02-15 13:00:00 18.4 10 Sur 22 Sudoeste 0 1022.9 -0.3 63
2020-02-15 12:00:00 17.5 11 Sur 20 Sur 0 1023.3 0.2 66
2020-02-15 11:00:00 16.1 11 Sur 20 Sudoeste 0 1023.3 0.9 73
2020-02-15 10:00:00 13.6 4 Sudoeste 12 Sudoeste 0 1023.2 1.4 90
2020-02-15 09:00:00 10.4 3 Sudoeste 8 Sudoeste 0 1023.1 1.3 97
2020-02-15 08:00:00 10.3 4 Oeste 7 Oeste 0 1022.4 0.7 97
2020-02-15 07:00:00 10.9 3 Oeste 7 Sudoeste 0 1021.8 0 97
2020-02-15 06:00:00 10.9 3 Noroeste 8 Sur 0 1021.8 0 97
2020-02-15 05:00:00 11.2 6 Sur 12 Sur 0 1021.7 -0.3 97
2020-02-15 04:00:00 11.5 3 Noroeste 6 Noroeste 0 1021.8 -0.2 96
2020-02-15 03:00:00 12 0 Calma 7 Noroeste 0 1021.8 -0.1 96
2020-02-15 02:00:00 12.4 2 Este 12 Sudoeste 0 1022 0.2 95
2020-02-15 01:00:00 12.9 6 Sudoeste 14 Sur 0 1022 0.1 96
2020-02-15 00:00:00 12.5 4 Sur 9 Sudoeste 0 1021.9 0.3 97
2020-02-14 23:00:00 11.8 4 Sudoeste 7 Sudoeste 0 1021.8 0.5 96
2020-02-14 22:00:00 12.2 4 Sudoeste 8 Sur 0 1021.9 1 95
2020-02-14 21:00:00 11.2 6 Sudoeste 9 Sudoeste 0 1021.6 1.4 95
2020-02-14 20:00:00 11.9 3 Noroeste 7 Oeste 0 1021.3 1.1 93
2020-02-14 19:00:00 13.3 3 Norte 5 Norte 0 1020.9 0.4 91
2020-02-14 18:00:00 14.7 4 Este 15 Nordeste 0 1020.2 -0.4 86
2020-02-14 17:00:00 16.3 11 Nordeste 21 Nordeste 0 1020.2 -0.9 78
2020-02-14 16:00:00 18 9 Nordeste 22 Nordeste 0 1020.5 -1.1 71
2020-02-14 15:00:00 18.4 12 Nordeste 21 Nordeste 0 1020.6 -1.8 64
2020-02-14 14:00:00 18.5 5 Nordeste 15 Nordeste 0 1021.1 -1.1 62
2020-02-14 13:00:00 17.6 5 Este 10 Este 0 1021.6 -0.2 69
2020-02-14 12:00:00 15 3 Sudeste 10 Sudoeste 0 1022.4 1.1 86
2020-02-14 11:00:00 12.8 4 Sudoeste 8 Noroeste 0 1022.2 1.5 97
2020-02-14 10:00:00 12 2 Noroeste 11 Sudoeste 0 1021.8 2 97
2020-02-14 09:00:00 11.5 3 Oeste 8 Noroeste 0 1021.3 1.6 97
2020-02-14 08:00:00 11.2 4 Noroeste 17 Sudoeste 0 1020.7 1.4 97
2020-02-14 07:00:00 12.1 10 Sudoeste 22 Sudoeste 0 1019.8 0.6 97
2020-02-14 06:00:00 12 5 Sudoeste 17 Sudoeste 0 1019.7 0.1 97
2020-02-14 05:00:00 12.1 9 Sudoeste 23 Sur 0 1019.3 -0.1 97
2020-02-14 04:00:00 12.3 9 Sudoeste 22 Sudoeste 0 1019.2 -0.4 96
2020-02-14 03:00:00 11.4 6 Sudoeste 17 Sur 0 1019.6 0.4 93
2020-02-14 02:00:00 11.8 8 Sudoeste 21 Sur 0 1019.4 0.5 90
2020-02-14 01:00:00 11.9 7 Sur 14 Sur 0 1019.6 1 91
2020-02-14 00:00:00 12 3 Sudoeste 14 Sudoeste 0 1019.2 0.7 90
2020-02-13 23:00:00 13 9 Sudoeste 19 Sudoeste 0 1018.9 0.3 91
2020-02-13 22:00:00 13.4 14 Sudoeste 27 Sudoeste 0 1018.6 0.5 89
2020-02-13 21:00:00 12.8 8 Sudoeste 18 Sudoeste 0 1018.5 1.3 90
2020-02-13 20:00:00 13.3 5 Sur 20 Sudoeste 0 1018.6 1.7 88
2020-02-13 19:00:00 14.6 12 Sudoeste 23 Sudoeste 0 1018.1 1 83
2020-02-13 18:00:00 16.1 9 Sudoeste 22 Sudoeste 0 1017.2 0.1 78
2020-02-13 17:00:00 17.6 11 Sur 21 Sur 0 1016.9 -0.9 70
2020-02-13 16:00:00 18.3 7 Este 17 Oeste 0 1017.1 -1.5 69
2020-02-13 15:00:00 18.4 4 Noroeste 12 Sudoeste 0 1017.1 -2.3 60
2020-02-13 14:00:00 18.4 4 Oeste 15 Sudoeste 0 1017.8 -1.3 61
2020-02-13 13:00:00 18.1 5 Sudoeste 18 Sur 0 1018.6 -0.2 63
2020-02-13 12:00:00 17.3 6 Sur 13 Sur 0 1019.4 0.8 67
2020-02-13 11:00:00 14.8 3 Sudoeste 8 Sur 0 1019.1 1 83
2020-02-13 10:00:00 13.1 4 Sur 7 Sur 0 1018.8 0.7 87
2020-02-13 09:00:00 11.2 5 Sur 9 Sur 0 1018.6 0.3 93
2020-02-13 08:00:00 11.3 4 Sur 6 Sudoeste 0 1018.1 -0.1 93
2020-02-13 07:00:00 11.4 3 Sudoeste 6 Oeste 0 1018.1 -0.3 93
2020-02-13 06:00:00 11.3 5 Oeste 7 Noroeste 0 1018.3 -0.7 92
2020-02-13 05:00:00 11.3 0 Calma 6 Sudoeste 0 1018.2 -1.2 93
2020-02-13 04:00:00 11.8 4 Sudoeste 8 Sudoeste 0 1018.4 -1.4 91
2020-02-13 03:00:00 11.9 4 Sur 7 Sur 0 1019 -1.1 91
2020-02-13 02:00:00 12.6 3 Sur 6 Oeste 0 1019.4 -1 87
2020-02-13 01:00:00 12.9 3 Oeste 7 Sudoeste 0 1019.8 -0.9 85
2020-02-13 00:00:00 12.1 4 Sudoeste 6 Sudoeste 0 1020.1 -0.5 90
2020-02-12 23:00:00 12.6 3 Sudoeste 6 Sur 0 1020.4 -0.2 86
2020-02-12 22:00:00 13.4 4 Sur 6 Sudoeste 0 1020.7 0.3 84
2020-02-12 21:00:00 13.6 0 Calma 6 Nordeste 0 1020.6 0.4 84
2020-02-12 20:00:00 13.9 2 Sur 5 Sur 0 1020.6 0.7 81
2020-02-12 19:00:00 14 3 Este 11 Sudeste 0 1020.4 0.4 80
2020-02-12 18:00:00 14.3 6 Sudeste 19 Sudeste 0 1020.2 0.1 77
2020-02-12 17:00:00 14.8 11 Sudeste 21 Sudeste 0 1019.9 -0.7 77
2020-02-12 16:00:00 15.3 13 Sudeste 21 Sudeste 0 1020 -1.5 76
2020-02-12 15:00:00 15.9 9 Sudeste 23 Sudeste 0 1020.1 -1.9 73
2020-02-12 14:00:00 16 10 Sudeste 23 Sudeste 0 1020.6 -1.3 72
2020-02-12 13:00:00 15.9 12 Este 21 Este 0 1021.5 -0.3 75
2020-02-12 12:00:00 16.2 9 Este 17 Este 0 1022 0.5 78
2020-02-12 11:00:00 15.7 3 Noroeste 8 Noroeste 0 1021.9 0.9 80
2020-02-12 10:00:00 14.3 3 Noroeste 7 Noroeste 0 1021.8 1.3 92
2020-02-12 09:00:00 11.1 5 Sudoeste 10 Sudeste 0 1021.5 1.3 95
2020-02-12 08:00:00 10.5 7 Sur 12 Sudeste 0 1021 1.2 96
2020-02-12 07:00:00 8.9 3 Sur 9 Oeste 0 1020.5 0.9 95
2020-02-12 06:00:00 9.6 7 Oeste 10 Oeste 0 1020.2 0.3 95
2020-02-12 05:00:00 9.3 5 Noroeste 9 Noroeste 0 1019.8 -0.7 95
2020-02-12 04:00:00 9.2 5 Noroeste 8 Sudoeste 0 1019.6 -1 95
2020-02-12 03:00:00 9.3 3 Sudoeste 10 Sudeste 0 1019.9 -0.8 94
2020-02-12 02:00:00 9.7 6 Sur 10 Sudeste 0 1020.5 -0.7 94
2020-02-12 01:00:00 10.2 4 Sudoeste 11 Sudoeste 0 1020.6 -0.3 93
2020-02-12 00:00:00 11.2 8 Sudoeste 11 Sudoeste 0 1020.7 0.4 92
2020-02-11 23:00:00 10.9 2 Nordeste 8 Oeste 0 1021.2 1.2 91
2020-02-11 22:00:00 12 3 Sudoeste 7 Sudoeste 0 1020.9 1.3 90
2020-02-11 21:00:00 12.1 4 Sudoeste 5 Oeste 0 1020.3 1.2 90
2020-02-11 20:00:00 13.3 0 Calma 8 Noroeste 0 1020 1.3 85
2020-02-11 19:00:00 15.1 0 Calma 7 Sudeste 0 1019.6 0.9 79
2020-02-11 18:00:00 16.9 3 Sudeste 20 Este 0 1019.1 0.6 70
2020-02-11 17:00:00 17.5 11 Este 20 Este 0 1018.7 -0.5 71
2020-02-11 16:00:00 19.1 11 Nordeste 26 Nordeste 0 1018.7 -1.4 68
2020-02-11 15:00:00 21 11 Nordeste 21 Este 0 1018.5 -2.2 55
2020-02-11 14:00:00 21.9 5 Nordeste 11 Norte 0 1019.2 -1.5 49
2020-02-11 13:00:00 21.4 5 Norte 11 Sudoeste 0 1020.1 -0.2 55
2020-02-11 12:00:00 19.2 5 Sur 12 Sur 0 1020.7 0.3 67
2020-02-11 11:00:00 15.5 8 Sur 13 Sudeste 0 1020.7 0.7 83
2020-02-11 10:00:00 12.9 3 Sudoeste 9 Sudoeste 0 1020.3 0.3 96
2020-02-11 09:00:00 11.1 3 Sudoeste 12 Sur 0 1020.4 0.1 97
2020-02-11 08:00:00 9.1 3 Sudoeste 10 Sudeste 0 1020 0 97
2020-02-11 07:00:00 8.7 0 Calma 6 Norte 0 1020 -0.6 97
2020-02-11 06:00:00 9.5 6 Noroeste 12 Sur 0 1020.3 -1.2 96
2020-02-11 05:00:00 9.2 3 Sudoeste 10 Sur 0 1020 -1.9 96
2020-02-11 04:00:00 8.8 2 Sudoeste 11 Sur 0 1020.6 -1.9 96
2020-02-11 03:00:00 10.4 5 Sur 11 Sudoeste 0 1021.5 -1.4 96
2020-02-11 02:00:00 10.8 6 Sudoeste 13 Sur 0 1021.9 -1.1 96
2020-02-11 01:00:00 10.6 7 Sur 13 Sur 0 1022.5 -0.6 96
2020-02-11 00:00:00 9.8 2 Sudoeste 7 Sur 0 1022.9 -0.3 94
2020-02-10 23:00:00 11.1 3 Sudoeste 8 Sur 0 1023 0.4 93
2020-02-10 22:00:00 12.4 4 Sudoeste 19 Sudoeste 0 1023.1 0.5 91
2020-02-10 21:00:00 12.8 4 Sudoeste 17 Sur 0 1023.2 0.8 91
2020-02-10 20:00:00 13.4 8 Sur 19 Sur 0 1022.6 0.3 90
2020-02-10 19:00:00 14.2 8 Sudoeste 23 Sudoeste 0 1022.6 -0.2 83
2020-02-10 18:00:00 16.2 14 Sudoeste 30 Sudoeste 0 1022.4 -0.8 72
2020-02-10 17:00:00 17.9 15 Sudoeste 34 Sudoeste 0 1022.3 -1.7 65
2020-02-10 16:00:00 19.1 17 Sudoeste 33 Sudoeste 0 1022.8 -2.1 59
2020-02-10 15:00:00 19.4 16 Sudoeste 32 Sudoeste 0 1023.2 -2.3 61
2020-02-10 14:00:00 19.1 17 Sudoeste 35 Sur 0 1024 -1.5 63
2020-02-10 13:00:00 18.9 16 Sudoeste 39 Sur 0 1024.9 -0.5 65
2020-02-10 12:00:00 18 17 Sur 35 Sudoeste 0 1025.5 0.3 70
2020-02-10 11:00:00 16.6 16 Sudoeste 31 Sur 0 1025.5 0.6 77
2020-02-10 10:00:00 15 14 Sur 30 Sur 0.2 1025.4 0.7 87
2020-02-10 09:00:00 13 5 Sur 14 Sudoeste 0 1025.2 0.6 94
2020-02-10 08:00:00 12.3 7 Sudoeste 22 Sudoeste 0 1024.9 0.1 93
2020-02-10 07:00:00 12.4 11 Sudoeste 19 Sudoeste 0 1024.7 -0.5 94
2020-02-10 06:00:00 11.6 10 Sur 19 Sudoeste 0 1024.6 -1.3 94
2020-02-10 05:00:00 12.2 10 Sudoeste 18 Sudoeste 0 1024.8 -1.5 93
2020-02-10 04:00:00 11.4 3 Oeste 14 Sudoeste 0 1025.2 -1.5 94
2020-02-10 03:00:00 11.5 7 Sudoeste 16 Sudoeste 0 1025.9 -1.2 93
2020-02-10 02:00:00 11.4 8 Sur 16 Sur 0 1026.3 -0.8 93
2020-02-10 01:00:00 12.1 5 Sur 16 Sur 0 1026.7 -0.3 94
2020-02-10 00:00:00 12.2 7 Sur 17 Sudoeste 0 1027.1 0.3 94
2020-02-09 23:00:00 12.6 8 Sudoeste 18 Sur 0 1027.1 0 93
2020-02-09 22:00:00 11.7 8 Sur 14 Sur 0 1027 1 94
2020-02-09 21:00:00 12.1 9 Sudoeste 15 Sudoeste 0 1026.8 0.8 93
2020-02-09 20:00:00 12.7 11 Sur 18 Sur 0 1027.1 1.6 89
2020-02-09 19:00:00 13.1 7 Sur 21 Sudoeste 0 1026 0.8 82
2020-02-09 18:00:00 15.1 13 Sudoeste 30 Sudoeste 0 1026 1 72
2020-02-09 17:00:00 16.6 14 Sudoeste 30 Sudoeste 0 1025.5 -0.4 68
2020-02-09 16:00:00 17.9 14 Sur 32 Sur 0 1025.2 -1.4 62
2020-02-09 15:00:00 18.6 14 Sur 26 Sudoeste 0 1025 -2.1 58
2020-02-09 14:00:00 18.3 9 Sudoeste 24 Sudoeste 0 1025.9 -1 52
2020-02-09 13:00:00 17.3 9 Sudoeste 17 Sudoeste 0 1026.6 0.2 58
2020-02-09 12:00:00 15.8 8 Sudoeste 15 Sur 0 1027.1 0.9 65
2020-02-09 11:00:00 14.4 6 Sur 12 Sur 0 1026.9 1.5 69
2020-02-09 10:00:00 10 6 Sur 10 Sur 0 1026.4 1.3 87
2020-02-09 09:00:00 6 6 Sur 12 Sur 0 1026.2 2 94
2020-02-09 08:00:00 4.8 7 Sudoeste 13 Sudoeste 0 1025.4 1.7 94
2020-02-09 07:00:00 4.2 7 Sudoeste 11 Sudoeste 0 1025.1 1.6 95
2020-02-09 06:00:00 4.5 6 Sur 8 Sur 0 1024.2 0.7 95
2020-02-09 05:00:00 4.9 4 Sudoeste 10 Sur 0 1023.7 0.1 94
2020-02-09 04:00:00 5.3 5 Sudoeste 10 Sur 0 1023.5 -0.5 94
2020-02-09 03:00:00 6.3 5 Sudoeste 12 Sudoeste 0 1023.5 -0.3 93
2020-02-09 02:00:00 6.8 8 Sudoeste 12 Sudoeste 0 1023.6 -0.2 93
2020-02-09 01:00:00 7 6 Sur 9 Sur 0 1024 0.5 92
2020-02-09 00:00:00 7.9 6 Sur 10 Sudoeste 0 1023.8 0.8 90
2020-02-08 23:00:00 9.1 6 Sur 9 Sudoeste 0 1023.8 1.3 86
2020-02-08 22:00:00 8.8 4 Sudoeste 6 Sudoeste 0 1023.5 2.1 86
2020-02-08 21:00:00 10 4 Oeste 9 Sudoeste 0 1023 2.3 83
2020-02-08 20:00:00 11.2 4 Sudoeste 8 Sudoeste 0 1022.5 2.1 79
2020-02-08 19:00:00 12.3 5 Sur 10 Sur 0 1021.4 1.4 73
2020-02-08 18:00:00 14 4 Nordeste 12 Nordeste 0 1020.7 0.5 64
2020-02-08 17:00:00 14.9 6 Nordeste 17 Este 0 1020.4 -0.1 60
2020-02-08 16:00:00 15.5 12 Este 18 Nordeste 0 1020 -1 57
2020-02-08 15:00:00 16.4 10 Este 17 Este 0 1020.2 -1.6 55
2020-02-08 14:00:00 16.3 4 Este 11 Sur 0 1020.5 -1.5 52
2020-02-08 13:00:00 15.9 3 Noroeste 13 Sudeste 0 1021 -1 50
2020-02-08 12:00:00 15.5 6 Sudeste 10 Sur 0 1021.8 0.3 52
2020-02-08 11:00:00 11.3 5 Sur 12 Sur 0 1022 1.3 85
2020-02-08 10:00:00 7.9 7 Sur 10 Sudoeste 0 1022 1.6 93
2020-02-08 09:00:00 6.3 8 Sur 11 Sur 0 1021.5 1.1 95
2020-02-08 08:00:00 3.9 7 Sudoeste 11 Sudoeste 0 1020.7 0.5 95
2020-02-08 07:00:00 4.2 7 Sur 11 Sur 0 1020.4 0.4 95
2020-02-08 06:00:00 4.4 5 Sur 10 Sudoeste 0 1020.4 0.2 95
2020-02-08 05:00:00 4.7 7 Sudoeste 11 Sudoeste 0 1020.2 -0.1 95
2020-02-08 04:00:00 5 7 Sur 10 Sudoeste 0 1020 -0.5 94
2020-02-08 03:00:00 5.6 7 Sudoeste 10 Sur 0 1020.2 -0.4 94
2020-02-08 02:00:00 5.9 6 Sudoeste 9 Sudoeste 0 1020.3 -0.2 94
2020-02-08 01:00:00 6.2 6 Sur 10 Sur 0 1020.5 0 93
2020-02-08 00:00:00 6.8 5 Sur 8 Sudoeste 0 1020.6 0 92
2020-02-07 23:00:00 7.5 4 Sudoeste 9 Sudoeste 0 1020.5 0 92
2020-02-07 22:00:00 7.1 4 Sudeste 8 Noroeste 0 1020.5 0.3 91
2020-02-07 21:00:00 9.5 6 Noroeste 8 Noroeste 0 1020.6 0.8 86
2020-02-07 20:00:00 10 4 Noroeste 5 Noroeste 0 1020.5 1 85
2020-02-07 19:00:00 12.3 0 Calma 11 Nordeste 0 1020.2 0.7 78
2020-02-07 18:00:00 13.4 6 Nordeste 14 Nordeste 0 1019.8 0 72
2020-02-07 17:00:00 14.5 8 Nordeste 18 Nordeste 0 1019.5 -0.8 67
2020-02-07 16:00:00 15.2 9 Nordeste 15 Nordeste 0 1019.5 -1.5 63
2020-02-07 15:00:00 14.8 5 Nordeste 12 Nordeste 0 1019.8 -2.2 61
2020-02-07 14:00:00 15 4 Este 10 Nordeste 0 1020.3 -1.7 61
2020-02-07 13:00:00 14.4 5 Este 12 Este 0 1021 -0.9 64
2020-02-07 12:00:00 14 3 Nordeste 7 Norte 0 1022 0.2 64
2020-02-07 11:00:00 12.8 3 Norte 8 Este 0 1022 0.3 73
2020-02-07 10:00:00 8.3 4 Sur 8 Sur 0 1021.9 0.2 87
2020-02-07 09:00:00 5.3 5 Sur 10 Sur 0 1021.8 0.2 93
2020-02-07 08:00:00 4.3 6 Sudoeste 10 Sudoeste 0 1021.7 -0.2 93
2020-02-07 07:00:00 4.2 5 Sudoeste 11 Sudoeste 0 1021.7 -0.7 93
2020-02-07 06:00:00 4 5 Sur 10 Sur 0 1021.6 -1.2 92
2020-02-07 05:00:00 4.6 5 Sudoeste 9 Sudoeste 0 1021.9 -1.2 93
2020-02-07 04:00:00 4.1 6 Sur 11 Sur 0 1022.4 -0.9 93
2020-02-07 03:00:00 3.9 7 Sur 10 Sur 0 1022.8 -0.7 92
2020-02-07 02:00:00 4.2 6 Sudoeste 10 Sudoeste 0 1023.1 -0.2 93
2020-02-07 01:00:00 4.2 5 Sur 10 Sudoeste 0 1023.3 0 91
2020-02-07 00:00:00 5 5 Sur 12 Oeste 0 1023.5 0.1 88
2020-02-06 23:00:00 6.4 5 Sudoeste 13 Oeste 0 1023.3 -0.3 87
2020-02-06 22:00:00 6.9 4 Sudoeste 10 Oeste 0 1023.3 -0.3 85
2020-02-06 21:00:00 7.9 5 Sudoeste 10 Sur 0 1023.4 0.1 83
2020-02-06 20:00:00 9 5 Sur 9 Sur 0 1023.6 0.3 80
2020-02-06 19:00:00 10.9 7 Sudeste 12 Sudeste 0 1023.6 0.6 72
2020-02-06 18:00:00 12.2 8 Este 19 Nordeste 0 1023.3 0.4 66
2020-02-06 17:00:00 13.7 12 Nordeste 23 Este 0 1023.3 -0.5 61
2020-02-06 16:00:00 15.1 12 Nordeste 23 Nordeste 0 1023 -1.4 52
2020-02-06 15:00:00 16.3 6 Nordeste 15 Este 0 1022.9 -2.3 44
2020-02-06 14:00:00 16.3 3 Noroeste 13 Sur 0 1023.8 -1.3 43
2020-02-06 13:00:00 15 5 Este 11 Sudeste 0 1024.4 -0.5 44
2020-02-06 12:00:00 14 3 Oeste 10 Sur 0 1025.2 0.7 49
2020-02-06 11:00:00 12.9 5 Sudeste 10 Sur 0 1025.1 0.8 62
2020-02-06 10:00:00 9.1 7 Sur 13 Sur 0 1024.9 0.6 71
2020-02-06 09:00:00 4.8 6 Sur 13 Sudoeste 0 1024.5 0.2 83
2020-02-06 08:00:00 2.7 5 Sur 12 Sur 0 1024.3 -0.2 89
2020-02-06 07:00:00 2.6 6 Sur 10 Sur 0 1024.3 0 89
2020-02-06 06:00:00 2.6 6 Sur 12 Sur 0 1024.3 -0.5 88
2020-02-06 05:00:00 2.6 9 Sur 12 Sur 0 1024.5 0.1 87
2020-02-06 04:00:00 2.5 5 Sur 9 Sudoeste 0 1024.3 -0.1 89
2020-02-06 03:00:00 3.3 7 Sudoeste 14 Sudoeste 0 1024.8 0.8 87
2020-02-06 02:00:00 4.2 9 Sudoeste 13 Sudoeste 0 1024.4 0.3 84
2020-02-06 01:00:00 4.2 8 Sur 15 Sudeste 0 1024.4 0.2 87
2020-02-06 00:00:00 5 8 Sur 12 Sudoeste 0 1024 0.4 89
2020-02-05 23:00:00 5 5 Sur 10 Sudoeste 0 1024.1 0.7 88
2020-02-05 22:00:00 5.6 4 Sudoeste 8 Sudoeste 0 1024.2 0.9 86
2020-02-05 21:00:00 6.5 5 Sudoeste 14 Sudoeste 0 1023.6 0.8 85
2020-02-05 20:00:00 8.6 6 Sur 9 Sur 0 1023.4 0.6 74
2020-02-05 19:00:00 9.8 5 Sur 8 Sur 0 1023.3 0.2 65
2020-02-05 18:00:00 13.5 4 Norte 19 Noroeste 0 1022.8 -1 49
2020-02-05 17:00:00 15.3 8 Noroeste 20 Oeste 0 1022.8 -2 41
2020-02-05 16:00:00 14.9 10 Nordeste 26 Nordeste 0 1023.1 -2.5 50
2020-02-05 15:00:00 14.4 14 Norte 29 Nordeste 0 1023.8 -2 50
2020-02-05 14:00:00 14.3 20 Norte 34 Norte 0 1024.8 -0.9 54
2020-02-05 13:00:00 14.3 20 Norte 37 Norte 0 1025.6 0.3 59
2020-02-05 12:00:00 13.5 17 Norte 31 Norte 0 1025.8 0.9 65
2020-02-05 11:00:00 13.5 15 Norte 32 Norte 0 1025.7 1.1 65
2020-02-05 10:00:00 12.5 11 Norte 23 Nordeste 0 1025.3 0.9 67
2020-02-05 09:00:00 11.5 12 Nordeste 27 Norte 0 1024.9 0.1 72
2020-02-05 08:00:00 11.6 19 Norte 32 Norte 0 1024.6 0 70
2020-02-05 07:00:00 11.2 8 Nordeste 28 Norte 0 1024.4 -0.2 71
2020-02-05 06:00:00 11.8 10 Nordeste 24 Norte 0 1024.8 -0.1 68
2020-02-05 05:00:00 12 11 Norte 32 Norte 0 1024.6 -0.1 65
2020-02-05 04:00:00 12.2 17 Norte 28 Norte 0 1024.6 -0.1 65
2020-02-05 03:00:00 12.4 15 Norte 35 Norte 0 1024.9 0.5 63
2020-02-05 02:00:00 12.8 19 Norte 32 Norte 0 1024.7 0.7 61
2020-02-05 01:00:00 12.7 15 Nordeste 32 Nordeste 0 1024.7 1.5 62
2020-02-05 00:00:00 13 22 Nordeste 39 Nordeste 0 1024.4 2.2 59
2020-02-04 23:00:00 13.1 19 Nordeste 41 Nordeste 0 1024 2.5 60
2020-02-04 22:00:00 13.4 20 Nordeste 40 Norte 0 1023.2 2.7 63
2020-02-04 21:00:00 13.6 21 Nordeste 29 Nordeste 0 1022.2 3.4 66
2020-02-04 20:00:00 13.9 14 Nordeste 28 Nordeste 0 1021.5 4.1 72
2020-02-04 19:00:00 13.9 12 Nordeste 39 Nordeste 0 1020.5 3.6 77
2020-02-04 18:00:00 14.5 17 Nordeste 45 Nordeste 0 1018.8 1.8 76
2020-02-04 12:00:00 22.4 31 Noroeste 62 Noroeste 0 1018.5 -0.4 36
2020-02-04 11:00:00 22.7 32 Noroeste 51 Noroeste 0.2 1018.7 0 35
2020-02-04 10:00:00 20.5 12 Noroeste 34 Noroeste 0 1018.8 -0.1 40
2020-02-04 09:00:00 14.4 7 Sudeste 14 Sudeste 0 1018.9 0 75
2020-02-04 08:00:00 12.8 7 Sur 25 Sudoeste 0 1018.7 -0.4 83
2020-02-04 07:00:00 12.6 9 Sudoeste 26 Sur 0 1018.9 -0.8 88
2020-02-04 06:00:00 13 13 Sur 21 Sur 0 1018.9 -1.3 87
2020-02-04 05:00:00 12.7 7 Sur 27 Sur 0 1019.1 -1.8 91
2020-02-04 04:00:00 12.9 12 Sur 28 Sur 0 1019.7 -1.8 90
2020-02-04 03:00:00 13.1 17 Sudoeste 32 Sudoeste 0 1020.2 -2.1 88
2020-02-04 02:00:00 13 4 Oeste 27 Sur 0 1020.9 -1.9 84
2020-02-04 01:00:00 14.1 14 Sudoeste 29 Sur 0 1021.5 -1.7 80
2020-02-04 00:00:00 13.8 15 Sudoeste 26 Sudoeste 0 1022.3 -0.9 83
2020-02-03 23:00:00 12.9 9 Sur 16 Sur 0 1022.8 -0.5 89
2020-02-03 22:00:00 13.6 11 Sur 18 Sur 0 1023.2 0.2 89
2020-02-03 21:00:00 13.3 5 Sudoeste 13 Sur 0 1023.2 0.6 90
2020-02-03 20:00:00 13.1 0 Calma 6 Sur 0 1023.3 0.6 89
2020-02-03 19:00:00 14.7 2 Sur 5 Sudeste 0 1023 0.1 85
2020-02-03 18:00:00 17.8 3 Norte 7 Nordeste 0 1022.6 -0.3 73
2020-02-03 17:00:00 19.8 5 Nordeste 18 Nordeste 0 1022.7 -0.6 63
2020-02-03 16:00:00 20.4 9 Nordeste 22 Nordeste 0 1022.9 -1 62
2020-02-03 15:00:00 20.7 14 Nordeste 21 Nordeste 0 1022.9 -1.7 61
2020-02-03 14:00:00 24.2 4 Sur 12 Sur 0 1023.3 -1.3 44
2020-02-03 13:00:00 23.5 5 Sudoeste 11 Sur 0 1023.9 -0.4 52
2020-02-03 12:00:00 21.2 4 Sudoeste 10 Sudeste 0 1024.6 0 65
2020-02-03 11:00:00 18.9 7 Sur 17 Sur 0 1024.6 0.6 71
2020-02-03 10:00:00 14.3 8 Sudoeste 15 Sur 0 1024.3 1 91
2020-02-03 09:00:00 11 2 Sudeste 11 Sudeste 0 1024.6 1.5 98
2020-02-03 08:00:00 9.2 2 Sur 8 Norte 0 1024 1 98
2020-02-03 07:00:00 10 2 Sudoeste 10 Sudoeste 0 1023.3 0.1 98
2020-02-03 06:00:00 10.5 6 Sudoeste 11 Sudoeste 0 1023.1 -0.6 98
2020-02-03 05:00:00 10.8 3 Sudoeste 12 Sur 0 1023 -0.8 98
2020-02-03 04:00:00 11.3 6 Sur 15 Sudoeste 0 1023.2 -0.9 98
2020-02-03 03:00:00 11.3 5 Sur 15 Sur 0 1023.7 -0.6 97
2020-02-03 02:00:00 12.1 8 Sudoeste 18 Sudoeste 0 1023.8 -0.3 97
2020-02-03 01:00:00 11.8 8 Sur 15 Sur 0 1024.1 -0.2 96
2020-02-03 00:00:00 12.2 5 Sur 14 Sudoeste 0 1024.3 0.3 93
2020-02-02 23:00:00 12.4 7 Sur 16 Sur 0 1024.1 0.1 90
2020-02-02 22:00:00 13.1 7 Sudoeste 17 Sudoeste 0 1024.3 0.7 87
2020-02-02 21:00:00 13.8 8 Sudoeste 15 Sudoeste 0 1024 0.7 82
2020-02-02 20:00:00 14.7 8 Sudoeste 20 Sudoeste 0 1024 1 79
2020-02-02 19:00:00 16.4 11 Sudoeste 22 Sudoeste 0 1023.6 0.8 73
2020-02-02 18:00:00 18.3 11 Sudoeste 22 Sudoeste 0 1023.3 0.7 65
2020-02-02 17:00:00 19.9 12 Sur 25 Sur 0 1023 0.3 63
2020-02-02 16:00:00 20.6 14 Sur 27 Sur 0 1022.8 -0.5 61
2020-02-02 15:00:00 21.2 14 Sur 30 Sur 0 1022.6 -1.4 60
2020-02-02 14:00:00 21.6 13 Sudoeste 28 Sudoeste 0 1022.7 -1.4 55
2020-02-02 13:00:00 21.3 13 Sudoeste 31 Sur 0 1023.3 -0.7 55
2020-02-02 12:00:00 21.1 13 Sudoeste 25 Sur 0 1024 0.2 54
2020-02-02 11:00:00 19.1 9 Sudoeste 21 Sudoeste 0 1024.1 1.3 61
2020-02-02 10:00:00 15.7 7 Sur 14 Sur 0 1024 1.7 73
2020-02-02 09:00:00 12.4 9 Sudoeste 15 Sudoeste 0 1023.8 1.6 82
2020-02-02 08:00:00 10.6 9 Sur 17 Sudoeste 0 1022.8 0.9 88
2020-02-02 07:00:00 11.6 12 Sudoeste 19 Sudoeste 0 1022.3 0.3 84
2020-02-02 06:00:00 10.7 9 Sur 15 Sudoeste 0 1022.2 -0.1 89
2020-02-02 05:00:00 11.1 11 Sudoeste 20 Sudoeste 0 1021.9 -0.5 87
2020-02-02 04:00:00 10.1 8 Sudoeste 15 Sur 0 1022 -0.3 91
2020-02-02 03:00:00 10.3 11 Sudoeste 15 Sudoeste 0 1022.3 0.1 90
2020-02-02 02:00:00 10 7 Sudoeste 12 Sudoeste 0 1022.4 0.3 92
2020-02-02 01:00:00 9.9 6 Sur 12 Sur 0 1022.3 0.3 92
2020-02-02 00:00:00 10.4 8 Sudoeste 11 Sudoeste 0 1022.2 0.7 92
2020-02-01 23:00:00 10.5 4 Sur 9 Sur 0 1022.1 1.3 91
2020-02-01 22:00:00 11.4 3 Sudoeste 9 Sur 0 1022 2.3 90
2020-02-01 21:00:00 12.4 5 Oeste 9 Sudoeste 0 1021.5 2.9 85
2020-02-01 20:00:00 12.8 4 Sudoeste 6 Oeste 0 1020.8 2.7 86
2020-02-01 19:00:00 15.3 3 Sudeste 13 Nordeste 0 1019.7 1.6 75
2020-02-01 18:00:00 17.5 13 Nordeste 22 Nordeste 0 1018.6 1.2 67
2020-02-01 17:00:00 19.4 6 Nordeste 14 Nordeste 0 1018.1 0.8 66
2020-02-01 16:00:00 20.6 7 Sur 18 Sur 0 1018.1 0.8 51
2020-02-01 15:00:00 19.1 7 Sur 22 Sudoeste 0 1017.4 -0.3 65
2020-02-01 14:00:00 18.1 12 Sudoeste 23 Sur 0 1017.3 -0.3 69
2020-02-01 13:00:00 18.1 9 Sudoeste 26 Sur 0 1017.3 -0.2 69
2020-02-01 12:00:00 16.8 14 Sur 26 Sur 0 1017.7 0.2 71
2020-02-01 11:00:00 15.8 12 Sudoeste 22 Sudoeste 0 1017.6 0.7 79
2020-02-01 10:00:00 12.9 8 Sudoeste 18 Sur 0 1017.5 0.8 85
2020-02-01 09:00:00 8.4 5 Sur 9 Sur 0 1017.5 0.9 94
2020-02-01 08:00:00 6.1 5 Sudoeste 9 Sur 0 1016.9 0 96
2020-02-01 07:00:00 6.1 7 Sur 10 Sudoeste 0 1016.7 -0.4 96
2020-02-01 06:00:00 6.3 6 Sudoeste 9 Sur 0 1016.6 -1.1 96
2020-02-01 05:00:00 6.5 6 Sur 11 Sudoeste 0 1016.9 -0.8 96
2020-02-01 04:00:00 7.4 7 Sudoeste 12 Sudoeste 0 1017.1 -0.8 95
2020-02-01 03:00:00 7.1 5 Sudoeste 9 Sudoeste 0 1017.7 -0.1 95
2020-02-01 02:00:00 8 6 Sudoeste 10 Sudoeste 0 1017.7 -0.4 95
2020-02-01 01:00:00 8.3 4 Sudoeste 8 Sudoeste 0 1017.9 -0.4 96
2020-02-01 00:00:00 8.9 5 Sur 9 Sudoeste 0 1017.8 -0.2 96
2020-01-31 23:00:00 9 5 Sudoeste 8 Oeste 0 1018.1 0.5 94
2020-01-31 22:00:00 9.8 2 Sur 9 Noroeste 0 1018.3 1.3 93
2020-01-31 21:00:00 11.8 6 Noroeste 8 Noroeste 0 1018 1.4 88
2020-01-31 20:00:00 11.8 3 Sudoeste 9 Sur 0 1017.6 1.5 90
2020-01-31 19:00:00 13.8 6 Sur 13 Sudeste 0 1017 1 78
2020-01-31 18:00:00 16.1 10 Este 18 Este 0 1016.6 0.6 64
2020-01-31 17:00:00 17.6 11 Este 17 Este 0 1016.1 -0.3 58
2020-01-31 16:00:00 19.6 6 Nordeste 15 Nordeste 0 1016 -1.3 53
2020-01-31 15:00:00 19.7 7 Nordeste 17 Nordeste 0 1016 -2.1 52
2020-01-31 14:00:00 19.3 6 Nordeste 13 Nordeste 0 1016.4 -1.9 51
2020-01-31 13:00:00 19 3 Este 12 Sudeste 0 1017.3 -0.8 49
2020-01-31 12:00:00 17.5 6 Sudeste 10 Sur 0 1018.1 0.2 61
2020-01-31 11:00:00 14.7 2 Este 11 Sur 0 1018.3 0.8 79
2020-01-31 10:00:00 12.4 6 Sudeste 11 Sudeste 0 1018.1 1.4 93
2020-01-31 09:00:00 10.6 4 Este 8 Sur 0 1017.9 1.4 98
2020-01-31 08:00:00 10.2 5 Sur 9 Sudoeste 0 1017.5 1.1 98
2020-01-31 07:00:00 10 6 Sudoeste 10 Sudoeste 0 1016.7 -0.1 98
2020-01-31 06:00:00 10.2 3 Sudoeste 8 Oeste 0 1016.5 -0.2 98
2020-01-31 05:00:00 10.7 3 Sudoeste 6 Sudoeste 0 1016.4 -0.2 97
2020-01-31 04:00:00 11 3 Oeste 9 Sur 0 1016.8 0 97
2020-01-31 03:00:00 11.5 4 Sur 8 Sur 0 1016.7 -0.2 97
2020-01-31 02:00:00 11.4 3 Oeste 9 Sudoeste 0 1016.6 -0.4 96
2020-01-31 01:00:00 11.8 3 Sudoeste 14 Sudoeste 0 1016.8 -0.4 94
2020-01-31 00:00:00 13.1 5 Sudoeste 14 Sur 0 1016.9 -0.3 95
2020-01-30 23:00:00 13.4 6 Sudoeste 11 Sudoeste 0 1017 0.2 94
2020-01-30 22:00:00 13.4 6 Sudoeste 15 Sudoeste 0 1017.2 0.5 92
2020-01-30 21:00:00 13.5 8 Sudoeste 26 Sudoeste 0 1017.2 1 89
2020-01-30 20:00:00 13.9 12 Sudoeste 23 Sudoeste 0 1016.8 0.8 77
2020-01-30 19:00:00 14.4 10 Sur 18 Sur 0 1016.7 0.3 73
2020-01-30 18:00:00 15.4 5 Sur 14 Sur 0 1016.2 -0.2 72
2020-01-30 17:00:00 17.5 8 Sur 20 Sur 0 1016 -1 62
2020-01-30 16:00:00 19.5 7 Sudoeste 16 Sur 0 1016.4 -1.3 62
2020-01-30 15:00:00 18.3 7 Sudoeste 13 Sudoeste 0 1016.4 -1.9 69
2020-01-30 14:00:00 18 6 Sur 14 Sur 0 1017 -1.2 74
2020-01-30 13:00:00 16.9 8 Sur 16 Sur 0 1017.7 -0.3 79
2020-01-30 12:00:00 16 7 Sudoeste 15 Sudoeste 0 1018.3 0.3 86
2020-01-30 11:00:00 14.6 8 Sur 16 Sudoeste 0 1018.2 0.7 91
2020-01-30 10:00:00 13.2 5 Sudoeste 22 Sudoeste 0 1018 0.8 97
2020-01-30 09:00:00 12.4 9 Sudoeste 20 Sudoeste 0 1018 0.8 98
2020-01-30 08:00:00 12.1 9 Sudoeste 18 Sudoeste 0 1017.5 0.2 98
2020-01-30 07:00:00 12.1 6 Sur 18 Sur 0 1017.2 -0.3 98
2020-01-30 06:00:00 12.1 9 Sur 18 Sur 0 1017.2 -0.7 98
2020-01-30 05:00:00 11.5 8 Sur 23 Sur 0 1017.3 -0.8 98
2020-01-30 04:00:00 11.3 5 Sudoeste 19 Sudoeste 0 1017.5 -1 96
2020-01-30 03:00:00 11.1 7 Sur 18 Sudoeste 0 1017.9 -0.8 95
2020-01-30 02:00:00 11.2 9 Sudoeste 17 Sur 0 1018.1 -0.9 96
2020-01-30 01:00:00 11.2 7 Sur 13 Sur 0 1018.5 -0.7 96
2020-01-30 00:00:00 11.1 7 Sudoeste 14 Sur 0 1018.7 -0.2 95
2020-01-29 23:00:00 11.4 6 Sudoeste 12 Sur 0 1019 0.3 94
2020-01-29 22:00:00 11.3 5 Sudoeste 13 Sudoeste 0 1019.2 0.9 92
2020-01-29 21:00:00 12 7 Sudoeste 10 Sudoeste 0 1018.9 1.2 90
2020-01-29 20:00:00 13 6 Oeste 8 Noroeste 0 1018.7 1.7 86
2020-01-29 19:00:00 14.2 4 Norte 9 Oeste 0 1018.3 1.4 80
2020-01-29 18:00:00 15.2 4 Sudoeste 13 Este 0 1017.7 0.9 76
2020-01-29 17:00:00 17.5 8 Nordeste 17 Nordeste 0 1017 -0.3 66
2020-01-29 16:00:00 19 7 Este 14 Norte 0 1016.9 -1.1 59
2020-01-29 15:00:00 19.6 4 Este 9 Sudeste 0 1016.8 -1.7 56
2020-01-29 14:00:00 19.7 3 Sudeste 13 Sudoeste 0 1017.3 -1.2 57
2020-01-29 13:00:00 18.5 3 Nordeste 10 Norte 0 1018 -0.2 68
2020-01-29 12:00:00 17.9 3 Norte 10 Sur 0 1018.5 0.7 73
2020-01-29 11:00:00 15.5 5 Sur 10 Sur 0 1018.5 1.3 78
2020-01-29 10:00:00 12.5 4 Sudeste 7 Sur 0 1018.2 1.6 88
2020-01-29 09:00:00 10.1 5 Sudoeste 10 Sur 0 1017.8 1.7 91
2020-01-29 08:00:00 9.3 5 Oeste 7 Oeste 0 1017.2 1.3 95
2020-01-29 07:00:00 9.1 5 Sur 7 Sudoeste 0 1016.6 0.5 94
2020-01-29 06:00:00 9.1 4 Sudoeste 11 Oeste 0 1016.1 0.1 92
2020-01-29 05:00:00 9.4 4 Oeste 9 Sudoeste 0 1015.9 0 93
2020-01-29 04:00:00 10.3 5 Oeste 13 Sudoeste 0 1016.1 -0.1 91
2020-01-29 03:00:00 11.9 8 Sur 18 Sur 0 1016 -0.3 88
2020-01-29 02:00:00 11.5 3 Sur 19 Sudoeste 0 1015.9 -0.4 86
2020-01-29 01:00:00 12.2 3 Sudoeste 19 Sur 0 1016.2 0.1 86
2020-01-29 00:00:00 12.5 8 Sur 26 Sudoeste 0 1016.3 0 86
2020-01-28 23:00:00 12.1 11 Sudoeste 21 Sudoeste 0 1016.3 0.1 86
2020-01-28 22:00:00 12.9 12 Sur 24 Sudoeste 0 1016.1 0.2 80
2020-01-28 21:00:00 14.1 10 Sudoeste 23 Sudoeste 0 1016.3 1 73
2020-01-28 20:00:00 13.5 10 Sur 23 Sur 0 1016.2 1.4 81
2020-01-28 19:00:00 14.1 8 Sudoeste 21 Sur 0 1015.9 1.1 80
2020-01-28 18:00:00 16.1 10 Sudoeste 21 Sudoeste 0 1015.3 1 66
2020-01-28 17:00:00 18.1 10 Sudoeste 23 Sudoeste 0 1014.8 0.2 61
2020-01-28 16:00:00 20.1 9 Sudoeste 29 Sudoeste 0 1014.8 -0.4 46
2020-01-28 15:00:00 20.2 14 Sudoeste 32 Sudoeste 0 1014.3 -1.5 49
2020-01-28 14:00:00 20.4 15 Sudoeste 32 Sudoeste 0 1014.6 -1.2 43
2020-01-28 13:00:00 19.7 14 Sur 36 Sur 0 1015.2 -0.3 54
2020-01-28 12:00:00 18.8 14 Sudoeste 39 Sudoeste 0 1015.8 0.8 54
2020-01-28 11:00:00 16.8 17 Sudoeste 35 Sur 0 1015.8 0.9 64
2020-01-28 10:00:00 14.5 16 Sur 35 Sur 0 1015.5 0.9 72
2020-01-28 09:00:00 12.9 13 Sudoeste 36 Sudoeste 0 1015 0.5 76
2020-01-28 08:00:00 12.6 16 Sudoeste 33 Sudoeste 0 1014.9 0.4 75
2020-01-28 07:00:00 11.4 7 Sur 22 Sudoeste 0 1014.6 -0.2 81
2020-01-28 06:00:00 12.1 12 Sudoeste 28 Sudoeste 0 1014.5 -0.4 77
2020-01-28 05:00:00 12.5 14 Sudoeste 32 Sudoeste 0 1014.5 -0.9 74
2020-01-28 04:00:00 12 12 Sudoeste 28 Sudoeste 0 1014.8 -1 80
2020-01-28 03:00:00 11.9 8 Sur 30 Sudoeste 0 1014.9 -1 80
2020-01-28 02:00:00 12 14 Sudoeste 31 Sudoeste 0 1015.4 -1.1 80
2020-01-28 01:00:00 12.3 18 Sudoeste 38 Sudoeste 0 1015.8 -0.8 78
2020-01-28 00:00:00 12.1 14 Sudoeste 29 Sur 0 1015.9 -1.1 76
2020-01-27 23:00:00 10.8 14 Sur 28 Sur 0 1016.5 -0.4 82
2020-01-27 22:00:00 10.7 15 Sur 31 Sudoeste 0 1016.6 0 80
2020-01-27 21:00:00 10.4 10 Sur 35 Sudoeste 0 1017 0.5 80
2020-01-27 20:00:00 12.7 15 Sudoeste 36 Sudoeste 0 1016.9 0.3 68
2020-01-27 19:00:00 12.1 11 Sudoeste 22 Sudoeste 0 1016.6 -0.3 79
2020-01-27 18:00:00 12.9 10 Sudoeste 32 Sur 0 1016.5 -0.7 73
2020-01-27 17:00:00 14.1 19 Sudoeste 36 Sur 0 1016.6 -1.6 68
2020-01-27 16:00:00 15.5 16 Sudoeste 33 Sudoeste 0 1016.9 -2.1 59
2020-01-27 15:00:00 15.8 15 Sur 35 Sudoeste 0 1017.2 -2.4 60
2020-01-27 14:00:00 16 14 Sudoeste 32 Sur 0 1018.2 -1.9 57
2020-01-27 13:00:00 15.9 14 Sudoeste 32 Sur 0 1019 -1.3 63
2020-01-27 12:00:00 14.8 15 Sudoeste 30 Sudoeste 0 1019.6 -0.5 70
2020-01-27 11:00:00 13.1 8 Sudoeste 18 Sudoeste 0 1020.1 0.2 77
2020-01-27 10:00:00 8.9 5 Sur 9 Sur 0 1020.3 0.9 88
2020-01-27 09:00:00 6 7 Sudoeste 14 Sudoeste 0 1020.1 0.9 93
2020-01-27 08:00:00 4.7 8 Sudoeste 12 Sudoeste 0 1019.9 0.9 95
2020-01-27 07:00:00 4.3 7 Sur 14 Sudoeste 0 1019.4 0.1 95
2020-01-27 06:00:00 5.1 6 Sudoeste 12 Sudoeste 0 1019.2 -0.3 95
2020-01-27 05:00:00 5.3 6 Sudoeste 12 Sudoeste 0 1019 -0.5 95
2020-01-27 04:00:00 4.7 4 Sur 7 Sur 0 1019.3 -0.4 95
2020-01-27 03:00:00 5.3 5 Sudoeste 10 Sur 0 1019.5 -0.1 94
2020-01-27 02:00:00 5.4 4 Sudoeste 10 Sur 0 1019.5 0 95
2020-01-27 01:00:00 6.3 6 Sur 10 Sur 0 1019.7 0.7 93
2020-01-27 00:00:00 6.5 4 Sudoeste 10 Sudoeste 0 1019.6 0.6 93
2020-01-26 23:00:00 6.8 5 Sur 10 Noroeste 0 1019.5 1.3 94
2020-01-26 22:00:00 8.2 6 Sudoeste 9 Sur 0 1019 1.4 91
2020-01-26 21:00:00 9.3 6 Sur 8 Sur 0 1019 2.2 87
2020-01-26 20:00:00 10.1 2 Sudoeste 11 Sudoeste 0 1018.2 2 82
2020-01-26 19:00:00 12.3 6 Sur 19 Noroeste 0 1017.6 1.7 71
2020-01-26 18:00:00 13.6 8 Noroeste 17 Noroeste 0 1016.8 1 67
2020-01-26 17:00:00 16 4 Norte 9 Nordeste 0 1016.2 0.4 63
2020-01-26 16:00:00 16.2 5 Nordeste 9 Norte 0 1015.9 -0.4 60
2020-01-26 15:00:00 16.5 3 Nordeste 9 Sudeste 0 1015.8 -0.9 59
2020-01-26 14:00:00 16 3 Sur 10 Sur 0 1015.8 -0.4 64
2020-01-26 13:00:00 15.5 5 Sur 14 Sur 0 1016.3 0.7 64
2020-01-26 12:00:00 15 4 Sudoeste 11 Sudoeste 0 1016.7 1.5 70
2020-01-26 11:00:00 13.1 7 Sudoeste 12 Sur 0 1016.2 1.4 77
2020-01-26 10:00:00 10.1 5 Sur 10 Sur 0 1015.6 1.3 88
2020-01-26 09:00:00 7.3 4 Sur 11 Sudoeste 0 1015.2 1.3 94
2020-01-26 08:00:00 5.7 5 Sur 8 Sur 0 1014.8 1.2 95
2020-01-26 07:00:00 6 5 Sur 10 Sur 0 1014.3 0.7 95
2020-01-26 06:00:00 5.6 4 Sudoeste 8 Sudoeste 0 1013.9 0.2 94
2020-01-26 05:00:00 6.1 4 Sur 10 Sudoeste 0 1013.6 -0.4 94
2020-01-26 04:00:00 6.9 6 Sudoeste 9 Sudoeste 0 1013.6 -0.5 93
2020-01-26 03:00:00 6.9 5 Sur 7 Sur 0 1013.7 -0.4 96
2020-01-26 02:00:00 7.6 4 Sudoeste 10 Sur 0 1014 -0.3 93
2020-01-26 01:00:00 8.5 7 Sudoeste 14 Sudoeste 0 1014.1 -0.5 95
2020-01-26 00:00:00 8.9 4 Sur 8 Sudoeste 0 1014.1 -0.4 95
2020-01-25 23:00:00 10.3 7 Sur 10 Sudoeste 0 1014.3 -0.1 94
2020-01-25 22:00:00 11.2 5 Oeste 8 Oeste 0 1014.6 0.5 92
2020-01-25 21:00:00 12.1 5 Sudoeste 10 Oeste 0 1014.5 0.6 91
2020-01-25 20:00:00 12.3 4 Oeste 7 Oeste 0 1014.4 0.4 91
2020-01-25 19:00:00 12.9 2 Sudeste 8 Sudeste 0 1014.1 -0.1 89
2020-01-25 18:00:00 14.3 5 Este 10 Sudeste 0 1013.9 -0.6 81
2020-01-25 17:00:00 15.6 6 Este 13 Este 0 1014 -1.3 73
2020-01-25 16:00:00 16.3 8 Sudeste 14 Este 0 1014.2 -2.3 68
2020-01-25 15:00:00 16.7 2 Sudeste 10 Norte 0 1014.5 -2.8 69
2020-01-25 14:00:00 16 3 Sudeste 10 Sudeste 0 1015.3 -2.3 71
2020-01-25 13:00:00 15 4 Sudoeste 8 Sur 0 1016.5 -1.2 77
2020-01-25 12:00:00 15 3 Este 6 Este 0 1017.3 -0.1 77
2020-01-25 11:00:00 12.9 3 Nordeste 9 Sudeste 0 1017.6 0.6 87
2020-01-25 10:00:00 10 4 Sudoeste 11 Sur 0 1017.7 1 92
2020-01-25 09:00:00 8.5 6 Sudoeste 12 Sudoeste 0 1017.4 0.7 96
2020-01-25 08:00:00 6.7 4 Sudoeste 9 Sur 0 1017 0.1 96
2020-01-25 07:00:00 7.6 5 Sudoeste 10 Sur 0 1016.7 -0.8 96
2020-01-25 06:00:00 7 5 Sur 12 Sur 0 1016.7 -1.1 96
2020-01-25 05:00:00 7.1 5 Sur 8 Sur 0 1016.9 -1.2 96
2020-01-25 04:00:00 7 5 Sur 8 Sudoeste 0 1017.5 -1 96
2020-01-25 03:00:00 7.3 4 Sur 8 Oeste 0 1017.8 -0.7 96
2020-01-25 02:00:00 7.7 5 Sudoeste 10 Sur 0 1018.1 -0.5 95
2020-01-25 01:00:00 7.2 6 Sur 10 Sudoeste 0 1018.5 0 96
2020-01-25 00:00:00 7.4 5 Sudoeste 10 Sudoeste 0 1018.5 -0.2 95
2020-01-24 23:00:00 7.7 6 Sur 8 Sudoeste 0 1018.6 0.1 95
2020-01-24 22:00:00 8.3 4 Sudoeste 10 Oeste 0 1018.5 0.5 94
2020-01-24 21:00:00 9.5 6 Oeste 9 Oeste 0 1018.7 1.3 93
2020-01-24 20:00:00 9.1 3 Oeste 7 Sudoeste 0 1018.5 1.5 94
2020-01-24 19:00:00 10.4 4 Sudoeste 6 Sudoeste 0 1018 1 91
2020-01-24 18:00:00 12.6 4 Este 12 Nordeste 0 1017.4 0.3 82
2020-01-24 17:00:00 14.5 6 Nordeste 13 Nordeste 0 1017 -0.2 74
2020-01-24 16:00:00 15.9 6 Este 12 Este 0 1017 -0.8 64
2020-01-24 15:00:00 16 7 Este 15 Este 0 1017.1 -1.3 63
2020-01-24 14:00:00 16.1 6 Este 13 Este 0 1017.2 -1.7 64
2020-01-24 13:00:00 15.7 3 Nordeste 8 Norte 0 1017.8 -0.9 69
2020-01-24 12:00:00 14.3 3 Este 6 Este 0 1018.4 -0.1 76
2020-01-24 11:00:00 12.5 4 Sur 10 Sudoeste 0 1018.9 0.9 82
2020-01-24 10:00:00 8.4 6 Sur 9 Sur 0 1018.7 1 90
2020-01-24 09:00:00 5.5 7 Sur 10 Sur 0 1018.5 1 95
2020-01-24 08:00:00 4.8 6 Sur 11 Sudoeste 0 1018 0.4 96
2020-01-24 07:00:00 5.1 7 Sur 11 Oeste 0 1017.7 -0.3 95
2020-01-24 06:00:00 5.8 5 Sudoeste 12 Sudoeste 0 1017.5 -0.8 95
2020-01-24 05:00:00 5.8 4 Sudoeste 8 Sudoeste 0 1017.6 -0.7 96
2020-01-24 04:00:00 6.5 6 Sudoeste 10 Sudoeste 0 1018 -0.8 96
2020-01-24 03:00:00 6.2 5 Sur 7 Sur 0 1018.3 -0.8 96
2020-01-24 02:00:00 6.8 5 Sudoeste 7 Sudoeste 0 1018.3 -0.8 96
2020-01-24 01:00:00 6.9 4 Sudoeste 6 Sudoeste 0 1018.8 -0.4 95
2020-01-24 00:00:00 7.1 3 Sur 8 Sudoeste 0 1019.1 0 95
2020-01-23 23:00:00 7.3 4 Sur 6 Oeste 0 1019.1 0.5 96
2020-01-23 22:00:00 8.1 3 Sudoeste 5 Sudoeste 0 1019.2 1 96
2020-01-23 21:00:00 9.1 2 Sur 10 Noroeste 0 1019.1 1.5 95
2020-01-23 20:00:00 10.5 6 Noroeste 10 Noroeste 0 1018.6 1.1 92
2020-01-23 19:00:00 11.8 5 Norte 13 Nordeste 0 1018.2 1 88
2020-01-23 18:00:00 13.1 9 Norte 15 Nordeste 0 1017.6 0.3 84
2020-01-23 17:00:00 14.6 10 Nordeste 17 Nordeste 0 1017.5 -0.3 73
2020-01-23 16:00:00 17.4 3 Sudeste 9 Sudoeste 0 1017.2 -0.8 53
2020-01-23 15:00:00 17.3 5 Sur 18 Sur 0 1017.3 -1.2 54
2020-01-23 14:00:00 16.7 5 Sur 11 Sudoeste 0 1017.8 -0.6 53
2020-01-23 13:00:00 16.1 2 Norte -- -- -- 1018 0 59
2020-01-23 12:00:00 15.3 5 Sur 11 Sur 0 1018.5 0.9 72
2020-01-23 11:00:00 13.4 4 Sur 7 Sur 0 1018.4 1.3 80
2020-01-23 10:00:00 11.1 3 Sur 5 Sur 0 1018 1.9 93
2020-01-23 09:00:00 9.1 3 Sudeste 9 Sudoeste 0 1017.6 2.3 96
2020-01-23 08:00:00 7.7 4 Sur 6 Sudoeste 0 1017.1 2.2 97
2020-01-23 07:00:00 7.7 3 Sur 6 Sur 0 1016.1 1.3 96
2020-01-23 06:00:00 8.3 0 Calma 10 Sudoeste 0 1015.3 0.7 95
2020-01-23 05:00:00 9.8 5 Sudoeste 9 Sudoeste 0 1014.9 0.7 95
2020-01-23 04:00:00 10.3 4 Sudoeste 8 Sudoeste 0 1014.8 0.4 96
2020-01-23 03:00:00 11.7 6 Sur 10 Sudeste 0 1014.6 0.2 96
2020-01-23 02:00:00 12.7 4 Sudeste 15 Sur 0 1014.2 -0.4 95
2020-01-23 01:00:00 12.9 6 Sudoeste 14 Sur 0 1014.4 0.4 95
2020-01-23 00:00:00 13.2 5 Noroeste 10 Noroeste 0 1014.4 0.6 94
2020-01-22 23:00:00 13.9 3 Noroeste 14 Norte 0 1014.6 0.7 88
2020-01-22 22:00:00 14 6 Norte 14 Noroeste 0 1014 0.4 87
2020-01-22 21:00:00 13.5 7 Norte 13 Norte 0 1013.8 0.7 88
2020-01-22 20:00:00 14 4 Norte 12 Este 0 1013.9 1.1 87
2020-01-22 19:00:00 14.6 10 Este 19 Sudeste 0 1013.6 0.5 85
2020-01-22 18:00:00 14.9 13 Sudeste 28 Sudeste 0 1013.1 -0.4 84
2020-01-22 17:00:00 15.6 17 Sudeste 30 Este 0 1012.8 -1.2 81
2020-01-22 16:00:00 16.4 17 Sudeste 30 Sudeste 0 1013.1 -1.5 76
2020-01-22 15:00:00 16.8 16 Sudeste 26 Sudeste 0 1013.5 -2.2 76
2020-01-22 14:00:00 16.4 17 Sudeste 29 Sudeste 0 1014 -2.1 76
2020-01-22 13:00:00 16.3 16 Este 26 Este -- 1014.6 -1.5 77
2020-01-22 12:00:00 15.3 11 Nordeste 17 Norte 0 1015.7 -0.4 --
2020-01-22 11:00:00 13.4 7 Norte 13 Norte 0 1016.1 0.6 --
2020-01-22 10:00:00 11.4 5 Noroeste 8 Noroeste 0 1016.1 0.5 --
2020-01-22 09:00:00 9.3 3 Oeste 8 Sur 0 1016.1 0.2 --
2020-01-22 08:00:00 8.7 5 Sudeste 12 Sudoeste 0 1015.5 -0.3 --
2020-01-22 07:00:00 8.5 5 Sudoeste 9 Oeste 0 1015.6 -0.4 --
2020-01-22 06:00:00 8 7 Sudoeste 10 Sudoeste 0 1015.9 0.2 --
2020-01-22 05:00:00 7.7 3 Sudoeste 12 Sudoeste 0 1015.8 -0.1 --
2020-01-22 04:00:00 8.5 8 Sudoeste 12 Sudoeste 0 1016 -0.1 --
2020-01-22 03:00:00 8.3 5 Sudoeste 7 Sur 0 1015.7 -0.5 --
2020-01-22 02:00:00 8.5 3 Sur 8 Sudeste 0 1015.9 -0.1 --
2020-01-22 01:00:00 9.2 3 Noroeste 7 Sudeste 0 1016.1 0.2 --
2020-01-22 00:00:00 10.3 3 Oeste 7 Noroeste 0 1016.2 0.7 --